createdAt,value
2017-07-21T00:00:11.285Z,0
2017-07-21T00:01:12.219Z,0
2017-07-21T00:02:10.416Z,0
2017-07-21T00:03:09.944Z,0
2017-07-21T00:04:09.959Z,0
2017-07-21T00:05:10.870Z,0
2017-07-21T00:06:10.801Z,0
2017-07-21T00:07:10.596Z,0
2017-07-21T00:08:10.580Z,0
2017-07-21T00:09:10.261Z,0
2017-07-21T00:10:12.016Z,0
2017-07-21T00:11:11.553Z,0
2017-07-21T00:12:10.415Z,0
2017-07-21T00:13:10.606Z,0
2017-07-21T00:14:10.554Z,0
2017-07-21T00:15:10.563Z,0
2017-07-21T00:16:10.558Z,0
2017-07-21T00:17:11.597Z,0
2017-07-21T00:18:09.926Z,0
2017-07-21T00:19:10.237Z,0
2017-07-21T00:20:10.963Z,0
2017-07-21T00:21:11.843Z,0
2017-07-21T00:22:11.221Z,0
2017-07-21T00:23:10.259Z,0
2017-07-21T00:24:09.878Z,0
2017-07-21T00:25:10.219Z,0
2017-07-21T00:26:09.884Z,0
2017-07-21T00:27:10.833Z,0
2017-07-21T00:28:12.139Z,0
2017-07-21T00:29:10.404Z,0
2017-07-21T00:30:09.861Z,0
2017-07-21T00:31:10.499Z,0
2017-07-21T00:32:10.501Z,0
2017-07-21T00:33:09.862Z,0
2017-07-21T00:34:09.539Z,0
2017-07-21T00:35:10.920Z,0
2017-07-21T00:36:11.579Z,0
2017-07-21T00:37:11.101Z,0
2017-07-21T00:38:10.159Z,0
2017-07-21T00:39:10.517Z,0
2017-07-21T00:40:09.911Z,0
2017-07-21T00:41:10.141Z,0
2017-07-21T00:42:09.855Z,0
2017-07-21T00:43:10.653Z,0
2017-07-21T00:44:10.826Z,0
2017-07-21T00:45:11.544Z,0
2017-07-21T00:46:10.442Z,0
2017-07-21T00:47:09.801Z,0
2017-07-21T00:48:10.148Z,0
2017-07-21T00:49:10.433Z,0
2017-07-21T00:50:10.859Z,0
2017-07-21T00:51:10.887Z,0
2017-07-21T00:52:09.986Z,0
2017-07-21T00:53:10.133Z,0
2017-07-21T00:54:10.711Z,0
2017-07-21T00:55:10.467Z,0
2017-07-21T00:56:10.617Z,0
2017-07-21T00:57:10.136Z,0
2017-07-21T00:58:09.765Z,0
2017-07-21T00:59:12.191Z,0
2017-07-21T01:00:10.425Z,0
2017-07-21T01:01:09.757Z,0
2017-07-21T01:02:09.467Z,0
2017-07-21T01:03:10.427Z,0
2017-07-21T01:04:11.641Z,0
2017-07-21T01:05:10.434Z,0
2017-07-21T01:06:09.762Z,0
2017-07-21T01:07:09.774Z,0
2017-07-21T01:08:09.416Z,0
2017-07-21T01:09:10.282Z,0
2017-07-21T01:10:12.139Z,0
2017-07-21T01:11:11.670Z,0
2017-07-21T01:12:10.058Z,0
2017-07-21T01:13:10.914Z,0
2017-07-21T01:14:11.446Z,0
2017-07-21T01:15:10.281Z,0
2017-07-21T01:16:10.341Z,0
2017-07-21T01:17:10.049Z,0
2017-07-21T01:18:10.057Z,0
2017-07-21T01:19:10.360Z,0
2017-07-21T01:20:10.541Z,0
2017-07-21T01:21:10.872Z,0
2017-07-21T01:22:10.502Z,0
2017-07-21T01:23:10.024Z,0
2017-07-21T01:24:10.001Z,0
2017-07-21T01:25:10.003Z,0
2017-07-21T01:26:10.313Z,0
2017-07-21T01:27:10.514Z,0
2017-07-21T01:28:11.492Z,0
2017-07-21T01:29:12.014Z,0
2017-07-21T01:30:10.480Z,0
2017-07-21T01:31:10.298Z,0
2017-07-21T01:32:09.358Z,0
2017-07-21T01:33:09.966Z,0
2017-07-21T01:34:10.306Z,0
2017-07-21T01:35:10.713Z,0
2017-07-21T01:36:09.960Z,0
2017-07-21T01:37:11.007Z,0
2017-07-21T01:38:09.950Z,0
2017-07-21T01:39:09.954Z,0
2017-07-21T01:40:10.023Z,0
2017-07-21T01:41:10.272Z,0
2017-07-21T01:42:09.609Z,0
2017-07-21T01:43:10.276Z,0
2017-07-21T01:44:09.940Z,0
2017-07-21T01:45:09.607Z,0
2017-07-21T01:46:10.262Z,0
2017-07-21T01:47:09.919Z,0
2017-07-21T01:48:10.269Z,0
2017-07-21T01:49:09.937Z,0
2017-07-21T01:50:09.922Z,0
2017-07-21T01:51:09.280Z,0
2017-07-21T01:52:09.901Z,0
2017-07-21T01:53:09.943Z,0
2017-07-21T01:54:09.587Z,0
2017-07-21T01:55:09.588Z,0
2017-07-21T01:56:10.263Z,0
2017-07-21T01:57:09.903Z,0
2017-07-21T01:58:09.912Z,0
2017-07-21T01:59:09.552Z,0
2017-07-21T02:00:10.202Z,0
2017-07-21T02:01:09.933Z,0
2017-07-21T02:02:09.874Z,0
2017-07-21T02:03:09.867Z,0
2017-07-21T02:04:10.190Z,0
2017-07-21T02:05:10.195Z,0
2017-07-21T02:06:10.073Z,0
2017-07-21T02:07:09.868Z,0
2017-07-21T02:08:09.522Z,0
2017-07-21T02:09:09.880Z,0
2017-07-21T02:10:10.182Z,0
2017-07-21T02:11:10.187Z,0
2017-07-21T02:12:09.861Z,0
2017-07-21T02:13:09.845Z,0
2017-07-21T02:14:09.835Z,0
2017-07-21T02:15:09.848Z,0
2017-07-21T02:16:09.187Z,0
2017-07-21T02:17:09.828Z,0
2017-07-21T02:18:09.820Z,0
2017-07-21T02:19:09.539Z,0
2017-07-21T02:20:10.153Z,0
2017-07-21T02:21:09.802Z,0
2017-07-21T02:22:09.184Z,0
2017-07-21T02:23:09.477Z,0
2017-07-21T02:24:09.478Z,0
2017-07-21T02:25:09.581Z,0
2017-07-21T02:26:10.587Z,0
2017-07-21T02:27:10.143Z,0
2017-07-21T02:28:09.787Z,0
2017-07-21T02:29:10.085Z,0
2017-07-21T02:30:09.804Z,0
2017-07-21T02:31:09.780Z,0
2017-07-21T02:32:10.105Z,0
2017-07-21T02:33:10.081Z,0
2017-07-21T02:34:10.106Z,0
2017-07-21T02:35:09.479Z,0
2017-07-21T02:36:09.779Z,0
2017-07-21T02:37:09.747Z,0
2017-07-21T02:38:09.432Z,0
2017-07-21T02:39:09.753Z,0
2017-07-21T02:40:09.108Z,0
2017-07-21T02:41:10.059Z,0
2017-07-21T02:42:09.425Z,0
2017-07-21T02:43:09.745Z,0
2017-07-21T02:44:09.730Z,0
2017-07-21T02:45:09.437Z,0
2017-07-21T02:46:09.084Z,0
2017-07-21T02:47:09.408Z,0
2017-07-21T02:48:10.037Z,0
2017-07-21T02:49:09.721Z,0
2017-07-21T02:50:09.716Z,0
2017-07-21T02:51:10.033Z,0
2017-07-21T02:52:09.377Z,0
2017-07-21T02:53:10.007Z,0
2017-07-21T02:54:09.689Z,0
2017-07-21T02:55:09.697Z,0
2017-07-21T02:56:09.688Z,0
2017-07-21T02:57:09.693Z,0
2017-07-21T02:58:09.987Z,0
2017-07-21T02:59:09.673Z,0
2017-07-21T03:00:09.345Z,0
2017-07-21T03:01:09.677Z,0
2017-07-21T03:02:09.015Z,0
2017-07-21T03:03:09.650Z,0
2017-07-21T03:04:09.666Z,0
2017-07-21T03:05:09.325Z,0
2017-07-21T03:06:09.665Z,0
2017-07-21T03:07:09.974Z,0
2017-07-21T03:08:09.633Z,0
2017-07-21T03:09:09.648Z,0
2017-07-21T03:10:09.652Z,0
2017-07-21T03:11:09.952Z,0
2017-07-21T03:12:09.307Z,0
2017-07-21T03:13:09.303Z,0
2017-07-21T03:14:09.624Z,0
2017-07-21T03:15:09.618Z,0
2017-07-21T03:16:09.292Z,0
2017-07-21T03:17:09.950Z,0
2017-07-21T03:18:09.616Z,0
2017-07-21T03:19:09.921Z,0
2017-07-21T03:20:09.648Z,5
2017-07-21T03:21:09.911Z,5
2017-07-21T03:22:09.604Z,5
2017-07-21T03:23:09.589Z,5
2017-07-21T03:24:09.601Z,5
2017-07-21T03:25:10.079Z,5
2017-07-21T03:26:09.900Z,5
2017-07-21T03:27:09.902Z,5
2017-07-21T03:28:09.938Z,5
2017-07-21T03:29:09.887Z,5
2017-07-21T03:30:09.284Z,5
2017-07-21T03:31:09.880Z,5
2017-07-21T03:32:09.237Z,10
2017-07-21T03:33:09.864Z,10
2017-07-21T03:34:09.443Z,10
2017-07-21T03:35:09.548Z,10
2017-07-21T03:36:09.580Z,10
2017-07-21T03:37:09.216Z,10
2017-07-21T03:38:09.845Z,10
2017-07-21T03:39:09.555Z,10
2017-07-21T03:40:08.898Z,10
2017-07-21T03:41:09.207Z,15
2017-07-21T03:42:09.519Z,15
2017-07-21T03:43:10.123Z,15
2017-07-21T03:44:08.911Z,15
2017-07-21T03:45:09.834Z,15
2017-07-21T03:46:09.185Z,15
2017-07-21T03:47:09.521Z,15
2017-07-21T03:48:09.492Z,20
2017-07-21T03:49:08.861Z,20
2017-07-21T03:50:09.169Z,20
2017-07-21T03:51:09.836Z,20
2017-07-21T03:52:09.162Z,20
2017-07-21T03:53:08.835Z,20
2017-07-21T03:54:09.496Z,25
2017-07-21T03:55:09.806Z,25
2017-07-21T03:56:09.138Z,25
2017-07-21T03:57:09.775Z,25
2017-07-21T03:58:09.161Z,25
2017-07-21T03:59:10.002Z,25
2017-07-21T04:00:09.126Z,30
2017-07-21T04:01:09.477Z,30
2017-07-21T04:02:09.127Z,30
2017-07-21T04:03:09.120Z,30
2017-07-21T04:04:09.786Z,35
2017-07-21T04:05:09.432Z,35
2017-07-21T04:06:09.772Z,35
2017-07-21T04:07:09.149Z,35
2017-07-21T04:08:09.739Z,35
2017-07-21T04:09:09.731Z,35
2017-07-21T04:10:09.094Z,40
2017-07-21T04:11:09.091Z,40
2017-07-21T04:12:09.451Z,40
2017-07-21T04:13:09.745Z,45
2017-07-21T04:14:08.766Z,45
2017-07-21T04:15:09.776Z,45
2017-07-21T04:16:09.705Z,45
2017-07-21T04:17:09.089Z,45
2017-07-21T04:18:09.705Z,50
2017-07-21T04:19:09.289Z,50
2017-07-21T04:20:09.397Z,55
2017-07-21T04:21:09.721Z,55
2017-07-21T04:22:09.371Z,55
2017-07-21T04:23:09.361Z,60
2017-07-21T04:24:09.099Z,60
2017-07-21T04:25:09.049Z,65
2017-07-21T04:26:09.351Z,65
2017-07-21T04:27:09.350Z,70
2017-07-21T04:28:09.040Z,70
2017-07-21T04:29:09.342Z,75
2017-07-21T04:30:09.387Z,80
2017-07-21T04:31:09.651Z,85
2017-07-21T04:32:09.333Z,80
2017-07-21T04:33:09.660Z,80
2017-07-21T04:34:09.009Z,75
2017-07-21T04:35:09.328Z,70
2017-07-21T04:36:09.679Z,70
2017-07-21T04:37:09.328Z,75
2017-07-21T04:38:09.314Z,75
2017-07-21T04:39:09.619Z,75
2017-07-21T04:40:09.328Z,75
2017-07-21T04:41:08.977Z,70
2017-07-21T04:42:08.714Z,70
2017-07-21T04:43:09.290Z,70
2017-07-21T04:44:09.284Z,75
2017-07-21T04:45:09.282Z,80
2017-07-21T04:46:09.299Z,85
2017-07-21T04:47:09.609Z,85
2017-07-21T04:48:09.601Z,90
2017-07-21T04:49:09.596Z,95
2017-07-21T04:50:09.267Z,100
2017-07-21T04:51:08.938Z,100
2017-07-21T04:52:09.279Z,105
2017-07-21T04:53:09.248Z,110
2017-07-21T04:54:08.926Z,115
2017-07-21T04:55:09.267Z,120
2017-07-21T04:56:09.571Z,135
2017-07-21T04:57:09.261Z,145
2017-07-21T04:58:09.243Z,155
2017-07-21T04:59:08.921Z,165
2017-07-21T05:00:09.230Z,180
2017-07-21T05:01:09.239Z,200
2017-07-21T05:02:09.548Z,205
2017-07-21T05:03:09.224Z,200
2017-07-21T05:04:09.243Z,200
2017-07-21T05:05:09.293Z,205
2017-07-21T05:06:09.225Z,215
2017-07-21T05:07:09.539Z,215
2017-07-21T05:08:09.217Z,190
2017-07-21T05:09:09.233Z,160
2017-07-21T05:10:09.212Z,145
2017-07-21T05:11:09.242Z,135
2017-07-21T05:12:08.580Z,130
2017-07-21T05:13:09.195Z,125
2017-07-21T05:14:09.513Z,125
2017-07-21T05:15:08.880Z,120
2017-07-21T05:16:08.552Z,120
2017-07-21T05:17:09.184Z,125
2017-07-21T05:18:09.514Z,130
2017-07-21T05:19:09.523Z,140
2017-07-21T05:20:08.872Z,145
2017-07-21T05:21:09.498Z,155
2017-07-21T05:22:09.177Z,165
2017-07-21T05:23:08.865Z,170
2017-07-21T05:24:09.189Z,170
2017-07-21T05:25:09.490Z,175
2017-07-21T05:26:09.509Z,180
2017-07-21T05:27:08.838Z,185
2017-07-21T05:28:08.534Z,185
2017-07-21T05:29:09.170Z,185
2017-07-21T05:30:08.833Z,180
2017-07-21T05:31:09.527Z,170
2017-07-21T05:32:09.481Z,160
2017-07-21T05:33:09.494Z,150
2017-07-21T05:34:09.487Z,140
2017-07-21T05:35:09.191Z,135
2017-07-21T05:36:09.474Z,135
2017-07-21T05:37:09.477Z,130
2017-07-21T05:38:08.815Z,130
2017-07-21T05:39:08.863Z,135
2017-07-21T05:40:09.483Z,140
2017-07-21T05:41:08.813Z,145
2017-07-21T05:42:09.129Z,145
2017-07-21T05:43:09.466Z,145
2017-07-21T05:44:09.187Z,145
2017-07-21T05:45:09.445Z,150
2017-07-21T05:46:09.183Z,160
2017-07-21T05:47:09.131Z,165
2017-07-21T05:48:09.462Z,170
2017-07-21T05:49:09.446Z,170
2017-07-21T05:50:09.124Z,170
2017-07-21T05:51:09.127Z,175
2017-07-21T05:52:09.431Z,180
2017-07-21T05:53:09.110Z,180
2017-07-21T05:54:09.144Z,190
2017-07-21T05:55:09.421Z,200
2017-07-21T05:56:08.799Z,210
2017-07-21T05:57:09.111Z,215
2017-07-21T05:58:09.103Z,215
2017-07-21T05:59:09.092Z,220
2017-07-21T06:00:09.453Z,235
2017-07-21T06:01:09.122Z,195
2017-07-21T06:02:09.413Z,180
2017-07-21T06:03:09.421Z,215
2017-07-21T06:04:09.425Z,250
2017-07-21T06:05:08.451Z,265
2017-07-21T06:06:09.110Z,270
2017-07-21T06:07:09.411Z,280
2017-07-21T06:08:09.079Z,295
2017-07-21T06:09:09.077Z,280
2017-07-21T06:10:08.760Z,245
2017-07-21T06:11:09.138Z,225
2017-07-21T06:12:09.395Z,220
2017-07-21T06:13:09.389Z,225
2017-07-21T06:14:09.395Z,235
2017-07-21T06:15:09.071Z,230
2017-07-21T06:16:08.748Z,235
2017-07-21T06:17:09.431Z,235
2017-07-21T06:18:09.082Z,235
2017-07-21T06:19:08.437Z,225
2017-07-21T06:20:09.091Z,235
2017-07-21T06:21:09.064Z,255
2017-07-21T06:22:09.379Z,280
2017-07-21T06:23:08.739Z,300
2017-07-21T06:24:11.435Z,315
2017-07-21T06:25:09.061Z,330
2017-07-21T06:26:09.048Z,315
2017-07-21T06:27:09.100Z,305
2017-07-21T06:28:08.735Z,335
2017-07-21T06:29:09.373Z,335
2017-07-21T06:30:08.755Z,360
2017-07-21T06:31:09.375Z,380
2017-07-21T06:32:09.371Z,370
2017-07-21T06:33:09.056Z,345
2017-07-21T06:34:09.385Z,335
2017-07-21T06:35:08.743Z,305
2017-07-21T06:36:09.403Z,280
2017-07-21T06:37:09.365Z,275
2017-07-21T06:38:09.413Z,285
2017-07-21T06:39:09.358Z,310
2017-07-21T06:40:09.073Z,335
2017-07-21T06:41:09.057Z,305
2017-07-21T06:42:09.386Z,275
2017-07-21T06:43:08.731Z,240
2017-07-21T06:44:09.061Z,230
2017-07-21T06:45:09.043Z,235
2017-07-21T06:46:09.074Z,240
2017-07-21T06:47:09.060Z,255
2017-07-21T06:48:09.038Z,265
2017-07-21T06:49:08.394Z,270
2017-07-21T06:50:09.091Z,280
2017-07-21T06:51:08.755Z,310
2017-07-21T06:52:09.039Z,335
2017-07-21T06:53:08.446Z,335
2017-07-21T06:54:08.726Z,320
2017-07-21T06:55:09.395Z,305
2017-07-21T06:56:09.073Z,290
2017-07-21T06:57:09.110Z,270
2017-07-21T06:58:09.370Z,250
2017-07-21T06:59:09.352Z,235
2017-07-21T07:00:09.394Z,230
2017-07-21T07:01:08.733Z,230
2017-07-21T07:02:09.056Z,235
2017-07-21T07:03:08.737Z,240
2017-07-21T07:04:09.380Z,240
2017-07-21T07:05:09.033Z,240
2017-07-21T07:06:09.368Z,240
2017-07-21T07:07:08.737Z,230
2017-07-21T07:08:08.710Z,235
2017-07-21T07:09:09.051Z,250
2017-07-21T07:10:09.360Z,245
2017-07-21T07:11:09.039Z,285
2017-07-21T07:12:08.733Z,325
2017-07-21T07:13:08.712Z,335
2017-07-21T07:14:09.042Z,360
2017-07-21T07:15:09.041Z,380
2017-07-21T07:16:09.034Z,400
2017-07-21T07:17:08.393Z,680
2017-07-21T07:18:08.744Z,375
2017-07-21T07:19:08.720Z,410
2017-07-21T07:20:09.046Z,445
2017-07-21T07:21:09.388Z,450
2017-07-21T07:22:08.403Z,425
2017-07-21T07:23:08.749Z,410
2017-07-21T07:24:09.054Z,405
2017-07-21T07:25:08.763Z,500
2017-07-21T07:26:08.752Z,655
2017-07-21T07:27:09.049Z,645
2017-07-21T07:28:09.043Z,620
2017-07-21T07:29:08.737Z,610
2017-07-21T07:30:09.383Z,610
2017-07-21T07:31:08.764Z,595
2017-07-21T07:32:09.405Z,590
2017-07-21T07:33:09.054Z,605
2017-07-21T07:34:08.413Z,620
2017-07-21T07:35:09.384Z,650
2017-07-21T07:36:09.081Z,665
2017-07-21T07:37:09.091Z,675
2017-07-21T07:38:09.067Z,675
2017-07-21T07:39:08.768Z,685
2017-07-21T07:40:21.500Z,685
2017-07-21T07:41:09.096Z,685
2017-07-21T07:42:09.425Z,675
2017-07-21T07:43:09.433Z,700
2017-07-21T07:44:09.126Z,710
2017-07-21T07:45:08.794Z,695
2017-07-21T07:46:09.683Z,665
2017-07-21T07:47:09.119Z,580
2017-07-21T07:48:09.155Z,515
2017-07-21T07:49:09.131Z,450
2017-07-21T07:50:09.170Z,365
2017-07-21T07:51:08.818Z,310
2017-07-21T07:52:08.826Z,295
2017-07-21T07:53:09.176Z,280
2017-07-21T07:54:09.488Z,275
2017-07-21T07:55:09.177Z,270
2017-07-21T07:56:08.864Z,275
2017-07-21T07:57:09.537Z,275
2017-07-21T07:58:09.208Z,280
2017-07-21T07:59:09.196Z,290
2017-07-21T08:00:09.529Z,305
2017-07-21T08:01:09.209Z,320
2017-07-21T08:02:09.232Z,335
2017-07-21T08:03:09.224Z,315
2017-07-21T08:04:09.234Z,310
2017-07-21T08:05:09.237Z,305
2017-07-21T08:06:09.234Z,315
2017-07-21T08:07:09.248Z,320
2017-07-21T08:08:09.578Z,310
2017-07-21T08:09:09.593Z,315
2017-07-21T08:10:09.306Z,305
2017-07-21T08:11:09.616Z,310
2017-07-21T08:12:08.960Z,345
2017-07-21T08:13:09.597Z,370
2017-07-21T08:14:09.306Z,380
2017-07-21T08:15:08.656Z,370
2017-07-21T08:16:09.289Z,355
2017-07-21T08:17:08.987Z,345
2017-07-21T08:18:09.073Z,285
2017-07-21T08:19:08.988Z,295
2017-07-21T08:20:09.300Z,295
2017-07-21T08:21:08.665Z,275
2017-07-21T08:22:09.010Z,255
2017-07-21T08:23:09.033Z,290
2017-07-21T08:24:09.016Z,270
2017-07-21T08:25:09.350Z,220
2017-07-21T08:26:09.038Z,210
2017-07-21T08:27:09.042Z,235
2017-07-21T08:28:09.357Z,230
2017-07-21T08:29:08.686Z,225
2017-07-21T08:30:09.360Z,225
2017-07-21T08:31:09.368Z,235
2017-07-21T08:32:09.690Z,235
2017-07-21T08:33:08.699Z,240
2017-07-21T08:34:09.042Z,240
2017-07-21T08:35:09.667Z,240
2017-07-21T08:36:09.089Z,245
2017-07-21T08:37:09.674Z,255
2017-07-21T08:38:09.038Z,260
2017-07-21T08:39:09.685Z,265
2017-07-21T08:40:09.716Z,265
2017-07-21T08:41:09.367Z,275
2017-07-21T08:42:09.044Z,295
2017-07-21T08:43:09.074Z,295
2017-07-21T08:44:09.378Z,285
2017-07-21T08:45:09.059Z,270
2017-07-21T08:46:09.389Z,265
2017-07-21T08:47:09.059Z,265
2017-07-21T08:48:09.710Z,265
2017-07-21T08:49:09.705Z,265
2017-07-21T08:50:09.079Z,260
2017-07-21T08:51:09.707Z,265
2017-07-21T08:52:09.414Z,275
2017-07-21T08:53:09.075Z,290
2017-07-21T08:54:09.774Z,305
2017-07-21T08:55:09.413Z,300
2017-07-21T08:56:09.721Z,320
2017-07-21T08:57:09.425Z,360
2017-07-21T08:58:09.407Z,355
2017-07-21T08:59:09.739Z,380
2017-07-21T09:00:09.102Z,350
2017-07-21T09:01:09.777Z,390
2017-07-21T09:02:08.773Z,405
2017-07-21T09:03:09.416Z,415
2017-07-21T09:04:09.107Z,410
2017-07-21T09:05:09.451Z,405
2017-07-21T09:06:09.102Z,410
2017-07-21T09:07:09.747Z,400
2017-07-21T09:08:09.151Z,400
2017-07-21T09:09:09.119Z,375
2017-07-21T09:10:09.462Z,345
2017-07-21T09:11:09.457Z,320
2017-07-21T09:12:09.783Z,290
2017-07-21T09:13:09.147Z,270
2017-07-21T09:14:09.130Z,255
2017-07-21T09:15:09.465Z,260
2017-07-21T09:16:09.466Z,275
2017-07-21T09:17:09.510Z,255
2017-07-21T09:18:09.131Z,245
2017-07-21T09:19:08.847Z,230
2017-07-21T09:20:09.784Z,225
2017-07-21T09:21:09.480Z,215
2017-07-21T09:22:08.853Z,220
2017-07-21T09:23:08.828Z,220
2017-07-21T09:24:09.801Z,220
2017-07-21T09:25:09.481Z,210
2017-07-21T09:26:09.515Z,220
2017-07-21T09:27:09.495Z,220
2017-07-21T09:28:09.166Z,220
2017-07-21T09:29:09.826Z,240
2017-07-21T09:30:09.551Z,260
2017-07-21T09:31:09.844Z,275
2017-07-21T09:32:09.505Z,310
2017-07-21T09:33:09.822Z,265
2017-07-21T09:34:09.827Z,245
2017-07-21T09:35:09.500Z,240
2017-07-21T09:36:09.530Z,230
2017-07-21T09:37:09.504Z,225
2017-07-21T09:38:09.865Z,205
2017-07-21T09:39:09.857Z,220
2017-07-21T09:40:09.543Z,230
2017-07-21T09:41:09.208Z,255
2017-07-21T09:42:09.862Z,265
2017-07-21T09:43:09.868Z,265
2017-07-21T09:44:09.862Z,255
2017-07-21T09:45:09.530Z,250
2017-07-21T09:46:09.537Z,230
2017-07-21T09:47:09.206Z,235
2017-07-21T09:48:09.528Z,235
2017-07-21T09:49:09.887Z,240
2017-07-21T09:50:09.876Z,250
2017-07-21T09:51:08.929Z,255
2017-07-21T09:52:09.559Z,255
2017-07-21T09:53:09.876Z,255
2017-07-21T09:54:08.582Z,255
2017-07-21T09:55:09.860Z,260
2017-07-21T09:56:09.544Z,245
2017-07-21T09:57:09.871Z,275
2017-07-21T09:58:09.878Z,325
2017-07-21T09:59:09.561Z,330
2017-07-21T10:00:09.564Z,315
2017-07-21T10:01:09.891Z,300
2017-07-21T10:02:09.588Z,280
2017-07-21T10:03:09.589Z,280
2017-07-21T10:04:09.248Z,305
2017-07-21T10:05:09.888Z,325
2017-07-21T10:06:09.589Z,320
2017-07-21T10:07:09.580Z,325
2017-07-21T10:08:09.896Z,330
2017-07-21T10:09:09.582Z,330
2017-07-21T10:10:09.904Z,325
2017-07-21T10:11:09.601Z,335
2017-07-21T10:12:09.591Z,335
2017-07-21T10:13:09.586Z,340
2017-07-21T10:14:09.916Z,375
2017-07-21T10:15:09.597Z,370
2017-07-21T10:16:09.621Z,325
2017-07-21T10:17:09.931Z,295
2017-07-21T10:18:09.310Z,265
2017-07-21T10:19:09.944Z,260
2017-07-21T10:20:09.717Z,255
2017-07-21T10:21:09.614Z,270
2017-07-21T10:22:09.956Z,275
2017-07-21T10:23:09.322Z,280
2017-07-21T10:24:09.299Z,270
2017-07-21T10:25:09.634Z,250
2017-07-21T10:26:09.665Z,210
2017-07-21T10:27:09.645Z,200
2017-07-21T10:28:09.377Z,215
2017-07-21T10:29:08.997Z,250
2017-07-21T10:30:09.993Z,230
2017-07-21T10:31:09.644Z,255
2017-07-21T10:32:09.977Z,265
2017-07-21T10:33:09.671Z,290
2017-07-21T10:34:10.023Z,330
2017-07-21T10:35:09.346Z,310
2017-07-21T10:36:09.340Z,265
2017-07-21T10:37:09.667Z,245
2017-07-21T10:38:09.991Z,265
2017-07-21T10:39:09.995Z,295
2017-07-21T10:40:10.047Z,290
2017-07-21T10:41:09.676Z,305
2017-07-21T10:42:09.373Z,320
2017-07-21T10:43:09.377Z,315
2017-07-21T10:44:09.682Z,300
2017-07-21T10:45:09.726Z,305
2017-07-21T10:46:09.745Z,330
2017-07-21T10:47:08.745Z,295
2017-07-21T10:48:09.707Z,260
2017-07-21T10:49:09.385Z,240
2017-07-21T10:50:09.084Z,240
2017-07-21T10:51:09.734Z,240
2017-07-21T10:52:09.707Z,255
2017-07-21T10:53:10.033Z,290
2017-07-21T10:54:10.041Z,330
2017-07-21T10:55:09.747Z,385
2017-07-21T10:56:09.085Z,425
2017-07-21T10:57:09.726Z,375
2017-07-21T10:58:09.420Z,315
2017-07-21T10:59:10.060Z,255
2017-07-21T11:00:09.414Z,200
2017-07-21T11:01:10.058Z,195
2017-07-21T11:02:09.737Z,190
2017-07-21T11:03:09.421Z,200
2017-07-21T11:04:09.792Z,240
2017-07-21T11:05:10.089Z,250
2017-07-21T11:06:09.438Z,280
2017-07-21T11:07:10.078Z,305
2017-07-21T11:08:09.467Z,290
2017-07-21T11:09:09.452Z,280
2017-07-21T11:10:09.441Z,275
2017-07-21T11:11:09.447Z,295
2017-07-21T11:12:10.103Z,280
2017-07-21T11:13:09.460Z,260
2017-07-21T11:14:09.470Z,235
2017-07-21T11:15:09.780Z,245
2017-07-21T11:16:09.787Z,285
2017-07-21T11:17:10.136Z,315
2017-07-21T11:18:10.115Z,360
2017-07-21T11:19:09.487Z,395
2017-07-21T11:20:09.830Z,400
2017-07-21T11:21:09.509Z,385
2017-07-21T11:22:10.149Z,350
2017-07-21T11:23:10.128Z,345
2017-07-21T11:24:09.820Z,325
2017-07-21T11:25:10.158Z,305
2017-07-21T11:26:10.129Z,305
2017-07-21T11:27:09.829Z,310
2017-07-21T11:28:09.511Z,320
2017-07-21T11:29:09.883Z,355
2017-07-21T11:30:09.823Z,360
2017-07-21T11:31:09.850Z,375
2017-07-21T11:32:09.828Z,375
2017-07-21T11:33:09.852Z,375
2017-07-21T11:34:10.179Z,385
2017-07-21T11:35:09.853Z,365
2017-07-21T11:36:09.535Z,360
2017-07-21T11:37:09.846Z,360
2017-07-21T11:38:09.552Z,355
2017-07-21T11:39:10.187Z,355
2017-07-21T11:40:09.873Z,340
2017-07-21T11:41:09.898Z,320
2017-07-21T11:42:09.881Z,310
2017-07-21T11:43:09.893Z,260
2017-07-21T11:44:10.203Z,260
2017-07-21T11:45:10.204Z,240
2017-07-21T11:46:09.890Z,285
2017-07-21T11:47:09.889Z,300
2017-07-21T11:48:09.897Z,340
2017-07-21T11:49:10.210Z,355
2017-07-21T11:50:09.966Z,380
2017-07-21T11:51:10.229Z,360
2017-07-21T11:52:10.231Z,350
2017-07-21T11:53:10.228Z,325
2017-07-21T11:54:09.920Z,300
2017-07-21T11:55:09.603Z,300
2017-07-21T11:56:09.923Z,285
2017-07-21T11:57:10.226Z,270
2017-07-21T11:58:09.912Z,280
2017-07-21T11:59:09.927Z,275
2017-07-21T12:00:09.919Z,245
2017-07-21T12:01:09.948Z,235
2017-07-21T12:02:10.296Z,260
2017-07-21T12:03:09.932Z,285
2017-07-21T12:04:09.605Z,295
2017-07-21T12:05:10.272Z,310
2017-07-21T12:06:09.944Z,330
2017-07-21T12:07:09.957Z,330
2017-07-21T12:08:10.297Z,340
2017-07-21T12:09:09.636Z,330
2017-07-21T12:10:10.294Z,325
2017-07-21T12:11:09.947Z,305
2017-07-21T12:12:10.321Z,285
2017-07-21T12:13:10.345Z,300
2017-07-21T12:14:09.984Z,335
2017-07-21T12:15:09.977Z,340
2017-07-21T12:16:10.288Z,350
2017-07-21T12:17:09.649Z,350
2017-07-21T12:18:09.658Z,320
2017-07-21T12:19:09.333Z,265
2017-07-21T12:20:13.147Z,225
2017-07-21T12:21:09.658Z,215
2017-07-21T12:22:09.997Z,205
2017-07-21T12:23:09.988Z,200
2017-07-21T12:24:09.681Z,200
2017-07-21T12:25:10.322Z,200
2017-07-21T12:26:10.336Z,195
2017-07-21T12:27:09.690Z,195
2017-07-21T12:28:10.365Z,195
2017-07-21T12:29:10.053Z,190
2017-07-21T12:30:09.699Z,190
2017-07-21T12:31:10.345Z,190
2017-07-21T12:32:09.690Z,190
2017-07-21T12:33:09.701Z,190
2017-07-21T12:34:09.718Z,190
2017-07-21T12:35:09.718Z,190
2017-07-21T12:36:10.053Z,190
2017-07-21T12:37:09.709Z,190
2017-07-21T12:38:09.727Z,195
2017-07-21T12:39:10.062Z,195
2017-07-21T12:40:09.737Z,200
2017-07-21T12:41:10.041Z,200
2017-07-21T12:42:10.048Z,205
2017-07-21T12:43:10.370Z,185
2017-07-21T12:44:09.728Z,200
2017-07-21T12:45:09.413Z,190
2017-07-21T12:46:10.455Z,205
2017-07-21T12:47:10.388Z,185
2017-07-21T12:48:10.078Z,200
2017-07-21T12:49:10.121Z,205
2017-07-21T12:50:10.104Z,205
2017-07-21T12:51:10.419Z,200
2017-07-21T12:52:09.793Z,210
2017-07-21T12:53:10.080Z,215
2017-07-21T12:54:10.404Z,220
2017-07-21T12:55:10.106Z,215
2017-07-21T12:56:10.090Z,210
2017-07-21T12:57:10.419Z,205
2017-07-21T12:58:10.115Z,205
2017-07-21T12:59:10.420Z,205
2017-07-21T13:00:09.789Z,200
2017-07-21T13:01:10.116Z,205
2017-07-21T13:02:09.793Z,210
2017-07-21T13:03:10.118Z,215
2017-07-21T13:04:10.139Z,210
2017-07-21T13:05:10.124Z,220
2017-07-21T13:06:10.440Z,240
2017-07-21T13:07:09.482Z,260
2017-07-21T13:08:10.131Z,295
2017-07-21T13:09:10.487Z,315
2017-07-21T13:10:09.823Z,365
2017-07-21T13:11:10.165Z,375
2017-07-21T13:12:10.161Z,360
2017-07-21T13:13:10.467Z,330
2017-07-21T13:14:09.503Z,305
2017-07-21T13:15:10.152Z,275
2017-07-21T13:16:10.155Z,255
2017-07-21T13:17:10.478Z,230
2017-07-21T13:18:10.166Z,225
2017-07-21T13:19:10.174Z,215
2017-07-21T13:20:10.541Z,215
2017-07-21T13:21:09.854Z,210
2017-07-21T13:22:10.503Z,215
2017-07-21T13:23:10.226Z,210
2017-07-21T13:24:09.865Z,215
2017-07-21T13:25:10.193Z,220
2017-07-21T13:26:10.519Z,230
2017-07-21T13:27:09.880Z,240
2017-07-21T13:28:10.209Z,230
2017-07-21T13:29:10.515Z,260
2017-07-21T13:30:10.202Z,260
2017-07-21T13:31:10.209Z,275
2017-07-21T13:32:10.232Z,295
2017-07-21T13:33:10.570Z,280
2017-07-21T13:34:10.543Z,280
2017-07-21T13:35:09.629Z,295
2017-07-21T13:36:10.291Z,305
2017-07-21T13:37:09.924Z,305
2017-07-21T13:38:10.252Z,275
2017-07-21T13:39:10.600Z,260
2017-07-21T13:40:10.104Z,235
2017-07-21T13:41:09.926Z,230
2017-07-21T13:42:09.944Z,220
2017-07-21T13:43:09.926Z,210
2017-07-21T13:44:09.633Z,210
2017-07-21T13:45:09.612Z,205
2017-07-21T13:46:09.981Z,205
2017-07-21T13:47:10.284Z,190
2017-07-21T13:48:10.291Z,190
2017-07-21T13:49:09.981Z,190
2017-07-21T13:50:09.982Z,205
2017-07-21T13:51:10.281Z,255
2017-07-21T13:52:09.954Z,245
2017-07-21T13:53:09.973Z,210
2017-07-21T13:54:10.293Z,225
2017-07-21T13:55:10.662Z,230
2017-07-21T13:56:10.299Z,235
2017-07-21T13:57:09.982Z,230
2017-07-21T13:58:09.981Z,235
2017-07-21T13:59:10.334Z,210
2017-07-21T14:00:10.328Z,225
2017-07-21T14:01:10.327Z,245
2017-07-21T14:02:09.997Z,255
2017-07-21T14:03:10.013Z,245